Map

Track Data

SID SEASON NUMBER BASIN SUBBASIN NAME ISO_TIME NATURE LAT LON WMO_WIND WMO_PRES WMO_AGENCY TRACK_TYPE DIST2LAND LANDFALL IFLAG USA_AGENCY USA_ATCF_ID USA_LAT USA_LON USA_RECORD USA_STATUS USA_WIND USA_PRES USA_SSHS USA_R34_NE USA_R34_SE USA_R34_SW USA_R34_NW USA_R50_NE USA_R50_SE USA_R50_SW USA_R50_NW USA_R64_NE USA_R64_SE USA_R64_SW USA_R64_NW USA_POCI USA_ROCI USA_RMW USA_EYE TOKYO_LAT TOKYO_LON TOKYO_GRADE TOKYO_WIND TOKYO_PRES TOKYO_R50_DIR TOKYO_R50_LONG TOKYO_R50_SHORT TOKYO_R30_DIR TOKYO_R30_LONG TOKYO_R30_SHORT TOKYO_LAND CMA_LAT CMA_LON CMA_CAT CMA_WIND CMA_PRES HKO_LAT HKO_LON HKO_CAT HKO_WIND HKO_PRES NEWDELHI_LAT NEWDELHI_LON NEWDELHI_GRADE NEWDELHI_WIND NEWDELHI_PRES NEWDELHI_CI NEWDELHI_DP NEWDELHI_POCI REUNION_LAT REUNION_LON REUNION_TYPE REUNION_WIND REUNION_PRES REUNION_TNUM REUNION_CI REUNION_RMW REUNION_R34_NE REUNION_R34_SE REUNION_R34_SW REUNION_R34_NW REUNION_R50_NE REUNION_R50_SE REUNION_R50_SW REUNION_R50_NW REUNION_R64_NE REUNION_R64_SE REUNION_R64_SW REUNION_R64_NW BOM_LAT BOM_LON BOM_TYPE BOM_WIND BOM_PRES BOM_TNUM BOM_CI BOM_RMW BOM_R34_NE BOM_R34_SE BOM_R34_SW BOM_R34_NW BOM_R50_NE BOM_R50_SE BOM_R50_SW BOM_R50_NW BOM_R64_NE BOM_R64_SE BOM_R64_SW BOM_R64_NW BOM_ROCI BOM_POCI BOM_EYE BOM_POS_METHOD BOM_PRES_METHOD NADI_LAT NADI_LON NADI_CAT NADI_WIND NADI_PRES WELLINGTON_LAT WELLINGTON_LON WELLINGTON_WIND WELLINGTON_PRES DS824_LAT DS824_LON DS824_STAGE DS824_WIND DS824_PRES TD9636_LAT TD9636_LON TD9636_STAGE TD9636_WIND TD9636_PRES TD9635_LAT TD9635_LON TD9635_WIND TD9635_PRES TD9635_ROCI NEUMANN_LAT NEUMANN_LON NEUMANN_CLASS NEUMANN_WIND NEUMANN_PRES MLC_LAT MLC_LON MLC_CLASS MLC_WIND MLC_PRES USA_GUST BOM_GUST BOM_GUST_PER REUNION_GUST REUNION_GUST_PER USA_SEAHGT USA_SEARAD_NE USA_SEARAD_SE USA_SEARAD_SW USA_SEARAD_NW STORM_SPEED STORM_DIR
1994181N17137 1994 40 WP MM NOT_NAMED 1994-06-29 12:00:00 NR 16.6000 136.600 main 1293 1228 O_____________ jtwc_wp WP071994 16.6000 136.600 15 -1 15 282
1994181N17137 1994 40 WP MM NOT_NAMED 1994-06-29 15:00:00 NR 16.7505 135.850 main 1232 1159 P_____________ WP071994 16.7505 135.850 15 -1 15 282
1994181N17137 1994 40 WP MM NOT_NAMED 1994-06-29 18:00:00 NR 16.9000 135.100 main 1159 1098 O_____________ jtwc_wp WP071994 16.9000 135.100 15 -1 15 282
1994181N17137 1994 40 WP MM NOT_NAMED 1994-06-29 21:00:00 NR 17.0497 134.350 main 1088 1035 P_____________ WP071994 17.0497 134.350 15 -1 15 282
1994181N17137 1994 40 WP MM NOT_NAMED 1994-06-30 00:00:00 NR 17.2000 133.600 main 1035 979 O_____________ jtwc_wp WP071994 17.2000 133.600 15 -1 15 282
1994181N17137 1994 40 WP MM NOT_NAMED 1994-06-30 03:00:00 NR 17.3497 132.850 main 970 917 P_____________ WP071994 17.3497 132.850 15 -1 15 282
1994181N17137 1994 40 WP MM NOT_NAMED 1994-06-30 06:00:00 NR 17.5000 132.100 main 917 856 O_____________ jtwc_wp WP071994 17.5000 132.100 15 -1 15 282
1994181N17137 1994 40 WP MM NOT_NAMED 1994-06-30 09:00:00 NR 17.6497 131.350 main 846 794 P_____________ WP071994 17.6497 131.350 15 -1 15 282
1994181N17137 1994 40 WP MM NOT_NAMED 1994-06-30 12:00:00 NR 17.8000 130.600 main 794 739 O_____________ jtwc_wp WP071994 17.8000 130.600 15 -1 15 282
1994181N17137 1994 40 WP MM NOT_NAMED 1994-06-30 15:00:00 NR 17.9572 129.850 main 737 688 P_____________ WP071994 17.9572 129.850 15 -1 15 282
1994181N17137 1994 40 WP MM NOT_NAMED 1994-06-30 18:00:00 NR 18.1000 129.100 main 688 639 O_____________ jtwc_wp WP071994 18.1000 129.100 15 -1 14 280
1994181N17137 1994 40 WP MM NOT_NAMED 1994-06-30 21:00:00 NR 18.2072 128.350 main 629 559 P_____________ WP071994 18.2072 128.350 17 -1 14 278
1994181N17137 1994 40 WP MM NOT_NAMED 1994-07-01 00:00:00 NR 18.3000 127.600 main 559 485 O_____________ jtwc_wp WP071994 18.3000 127.600 20 -1 14 278
1994181N17137 1994 40 WP MM NOT_NAMED 1994-07-01 03:00:00 NR 18.3997 126.850 main 474 401 P_____________ WP071994 18.3997 126.850 20 -1 14 278
1994181N17137 1994 40 WP MM NOT_NAMED 1994-07-01 06:00:00 NR 18.5000 126.100 main 401 327 O_____________ jtwc_wp WP071994 18.5000 126.100 20 -1 14 278
1994181N17137 1994 40 WP MM NOT_NAMED 1994-07-01 09:00:00 NR 18.6072 125.350 main 327 244 P_____________ WP071994 18.6072 125.350 20 -1 14 278
1994181N17137 1994 40 WP MM NOT_NAMED 1994-07-01 12:00:00 NR 18.7000 124.600 main 244 174 O_____________ jtwc_wp WP071994 18.7000 124.600 20 -1 14 276
1994181N17137 1994 40 WP MM NOT_NAMED 1994-07-01 15:00:00 NR 18.7572 123.850 main 164 95 P_____________ WP071994 18.7572 123.850 20 -1 14 274
1994181N17137 1994 40 WP MM NOT_NAMED 1994-07-01 18:00:00 NR 18.8000 123.100 main 95 45 O_____________ jtwc_wp WP071994 18.8000 123.100 20 -1 14 274
1994181N17137 1994 40 WP MM NOT_NAMED 1994-07-01 21:00:00 NR 18.8497 122.350 main 44 44 P_____________ WP071994 18.8497 122.350 20 -1 14 274
1994181N17137 1994 40 WP MM NOT_NAMED 1994-07-02 00:00:00 NR 18.9000 121.600 main 49 33 O_____________ jtwc_wp WP071994 18.9000 121.600 20 -1 14 274
1994181N17137 1994 40 WP MM NOT_NAMED 1994-07-02 03:00:00 NR 18.9497 120.850 main 33 33 P_____________ WP071994 18.9497 120.850 20 -1 14 274
1994181N17137 1994 40 WP MM NOT_NAMED 1994-07-02 06:00:00 NR 19.0000 120.100 main 85 85 O_____________ jtwc_wp WP071994 19.0000 120.100 20 -1 14 274
1994181N17137 1994 40 WP MM NOT_NAMED 1994-07-02 09:00:00 NR 19.0497 119.350 main 152 152 P_____________ WP071994 19.0497 119.350 22 -1 14 266
1994181N17137 1994 40 WP MM NOT_NAMED 1994-07-02 12:00:00 TS 18.9000 118.617 main 218 218 O_OO__________ jtwc_wp WP071994 19.1000 118.600 25 -1 18.5000 118.700 1 23 1003 18.5000 118.600 TD 25 1000 15 263
1994181N17137 1994 40 WP MM NOT_NAMED 1994-07-02 15:00:00 TS 18.8633 117.828 main 298 298 P_PP__________ WP071994 19.1423 117.842 25 -1 18.5529 117.865 1 23 1002 18.6155 117.763 TD 25 1000 15 269
1994181N17137 1994 40 WP MM NOT_NAMED 1994-07-02 18:00:00 TS 18.8700 117.010 main 377 377 O_OO__________ jtwc_wp WP071994 19.2000 117.100 25 -1 18.6000 117.000 1 23 1002 18.7000 116.900 TD 25 1000 16 271
1994181N17137 1994 40 WP MM NOT_NAMED 1994-07-02 21:00:00 TS 18.8967 116.165 main 424 386 P_PP__________ WP071994 19.2923 116.378 25 -1 18.6552 116.105 1 30 998 18.7426 116.012 TD 27 997 15 275
1994181N17137 1994 40 WP MM NOT_NAMED 1994-07-03 00:00:00 TS 19.0000 115.400 main 386 350 O_OO__________ jtwc_wp WP071994 19.4000 115.700 25 -1 18.8000 115.300 2 38 995 18.8000 115.200 TD 30 994 13 283
1994181N17137 1994 40 WP MM NOT_NAMED 1994-07-03 03:00:00 TS 19.1870 114.782 main 350 310 P_PP__________ WP071994 19.4998 115.070 25 -1 19.1342 114.720 2 38 995 18.9270 114.555 TD 30 994 12 290
1994181N17137 1994 40 WP MM NOT_NAMED 1994-07-03 06:00:00 TS 19.4000 114.233 main 306 267 O_OO__________ jtwc_wp WP071994 19.6000 114.500 25 -1 19.5000 114.200 2 38 995 19.1000 114.000 TD 30 994 11 290
1994181N17137 1994 40 WP MM NOT_NAMED 1994-07-03 09:00:00 TS 19.5767 113.642 main 264 220 P_PP__________ WP071994 19.6998 113.977 27 -1 19.7376 113.542 2 38 995 19.2925 113.405 TD 30 994 11 287
1994181N17137 1994 40 WP MM NOT_NAMED 1994-07-03 12:00:00 TS 19.7333 113.100 main 220 179 O_OO__________ jtwc_wp WP071994 19.8000 113.500 30 -1 19.9000 112.900 2 38 995 19.5000 112.900 TD 30 994 10 287
1994181N17137 1994 40 WP MM NOT_NAMED 1994-07-03 15:00:00 TS 19.8616 112.633 main 170 143 P_PP__________ WP071994 19.8775 113.020 30 -1 20.0075 112.325 2 38 995 19.6997 112.555 TD 30 994 8 289
1994181N17137 1994 40 WP MM NOT_NAMED 1994-07-03 18:00:00 TS 20.0000 112.267 main 143 117 O_OO__________ jtwc_wp WP071994 20.0000 112.600 30 -1 20.1000 111.900 2 38 995 19.9000 112.300 TD 30 994 7 297
1994181N17137 1994 40 WP MM NOT_NAMED 1994-07-03 21:00:00 TS 20.1749 111.988 main 119 104 P_PP__________ WP071994 20.2199 112.263 30 -1 20.2198 111.682 2 38 995 20.0850 112.020 TD 30 994 6 312
1994181N17137 1994 40 WP MM NOT_NAMED 1994-07-04 00:00:00 TS 20.4000 111.800 main 109 88 O_OO__________ jtwc_wp WP071994 20.5000 112.000 30 -1 20.4000 111.600 2 38 995 20.3000 111.800 TD 30 994 6 329
1994181N17137 1994 40 WP MM NOT_NAMED 1994-07-04 03:00:00 TS 20.6824 111.666 main 88 54 P_PP__________ WP071994 20.7999 111.777 30 -1 20.6700 111.542 2 38 992 20.5774 111.677 TD 30 994 6 340
1994181N17137 1994 40 WP MM NOT_NAMED 1994-07-04 06:00:00 TS 21.0000 111.567 main 54 22 O_OO__________ jtwc_wp WP071994 21.1000 111.600 30 -1 21.0000 111.500 2 38 990 20.9000 111.600 TD 30 994 7 342
1994181N17137 1994 40 WP MM NOT_NAMED 1994-07-04 09:00:00 TS 21.3117 111.445 main 15 0 P_PP__________ WP071994 21.3500 111.435 30 -1 21.3350 111.400 2 38 991 21.2500 111.500 TD 30 994 7 341
1994181N17137 1994 40 WP MM NOT_NAMED 1994-07-04 12:00:00 TS 21.6333 111.333 main 0 0 O_OO__________ jtwc_wp WP071994 21.6000 111.300 30 -1 21.7000 111.300 2 38 993 21.6000 111.400 TD 30 994 7 346
1994181N17137 1994 40 WP MM NOT_NAMED 1994-07-04 15:00:00 TS 21.9766 111.270 main 0 0 P_PP__________ WP071994 21.8925 111.192 27 -1 22.0998 111.295 2 33 993 21.9374 111.322 TD 30 994 7 347
1994181N17137 1994 40 WP MM NOT_NAMED 1994-07-04 18:00:00 TS 22.3000 111.167 main 0 0 O_OO__________ jtwc_wp WP071994 22.2000 111.100 25 -1 22.5000 111.200 1 29 994 22.2000 111.200 TD 30 994 7 333
1994181N17137 1994 40 WP MM NOT_NAMED 1994-07-04 21:00:00 TS 22.5751 110.944 main 0 0 P_PP__________ WP071994 22.5000 111.000 22 -1 22.8952 110.846 1 24 995 22.3300 110.987 TD 30 994 7 316
1994181N17137 1994 40 WP MM NOT_NAMED 1994-07-05 00:00:00 TS 22.8000 110.645 main 0 0 O_OO__________ jtwc_wp WP071994 22.8000 110.900 20 -1 23.2000 110.400 0 19 996 22.4000 110.700 TD 30 994 7 303
1994181N17137 1994 40 WP MM NOT_NAMED 1994-07-05 03:00:00 TS 22.9550 110.314 main 0 0 P_PP__________ WP071994 23.1000 110.800 17 -1 23.3300 110.027 0 19 996 22.5076 110.358 TD 27 995 7 295
1994181N17137 1994 40 WP MM NOT_NAMED 1994-07-05 06:00:00 TS 23.1000 109.938 main 0 0 O_OO__________ jtwc_wp WP071994 23.4000 110.700 15 -1 23.4000 109.700 0 19 996 22.6000 110.000 TD 25 996 8 292
1994181N17137 1994 40 WP MM NOT_NAMED 1994-07-05 09:00:00 TS 23.2481 109.538 main 0 0 __PP__________ WP071994 -1 23.5422 109.465 0 19 996 22.6600 109.685 TD 25 996 8 302
1994181N17137 1994 40 WP MM NOT_NAMED 1994-07-05 12:00:00 TS 23.5000 109.240 main 0 0 __OO__________ -1 23.7000 109.200 0 19 997 22.7000 109.400 TD 25 996 10 309
1994181N17137 1994 40 WP MM NOT_NAMED 1994-07-05 15:00:00 TS 23.8504 108.728 main 0 0 __P___________ -1 23.8504 108.728 0 19 997 TD 10 300
1994181N17137 1994 40 WP MM NOT_NAMED 1994-07-05 18:00:00 TS 24.0000 108.300 main 0 0 __O___________ -1 24.0000 108.300 0 19 998 6 298
1994181N17137 1994 40 WP MM NOT_NAMED 1994-07-05 21:00:00 TS 24.1497 108.120 main 0 0 __P___________ -1 24.1497 108.120 0 19 998 4 329
1994181N17137 1994 40 WP MM NOT_NAMED 1994-07-06 00:00:00 TS 24.3000 108.100 main 0 __O___________ -1 24.3000 108.100 0 19 999 3 0

Digital Typhoon Data and Search

About IBTrACS Database

This database is a web-friendly format of International Best Track Archive for Climate Stewardship (IBTrACS), a global best track data archive curated by NOAA dating back to 1842.

Updated: 2021-11-26